sensor_id;sensor_type;location;lat;lon;timestamp;P1;durP1;ratioP1;P2;durP2;ratioP2
1885;SDS011;943;51.568;6.998;2023-09-12T00:02:12;5.20;;;3.30;;
1885;SDS011;943;51.568;6.998;2023-09-12T00:04:39;5.53;;;3.10;;
1885;SDS011;943;51.568;6.998;2023-09-12T00:07:07;6.60;;;3.30;;
1885;SDS011;943;51.568;6.998;2023-09-12T00:09:35;6.17;;;3.87;;
1885;SDS011;943;51.568;6.998;2023-09-12T00:12:03;5.00;;;3.20;;
1885;SDS011;943;51.568;6.998;2023-09-12T00:14:32;5.23;;;3.40;;
1885;SDS011;943;51.568;6.998;2023-09-12T00:16:59;5.73;;;4.20;;
1885;SDS011;943;51.568;6.998;2023-09-12T00:19:27;5.77;;;3.27;;
1885;SDS011;943;51.568;6.998;2023-09-12T00:21:55;6.97;;;4.23;;
1885;SDS011;943;51.568;6.998;2023-09-12T00:24:23;10.07;;;6.60;;
1885;SDS011;943;51.568;6.998;2023-09-12T00:26:50;7.43;;;4.47;;
1885;SDS011;943;51.568;6.998;2023-09-12T00:29:18;7.43;;;4.50;;
1885;SDS011;943;51.568;6.998;2023-09-12T00:31:46;5.87;;;5.27;;
1885;SDS011;943;51.568;6.998;2023-09-12T00:34:17;7.10;;;5.00;;
1885;SDS011;943;51.568;6.998;2023-09-12T00:36:45;9.43;;;5.03;;
1885;SDS011;943;51.568;6.998;2023-09-12T00:39:12;8.97;;;7.10;;
1885;SDS011;943;51.568;6.998;2023-09-12T00:41:40;8.23;;;5.00;;
1885;SDS011;943;51.568;6.998;2023-09-12T00:44:09;7.67;;;4.40;;
1885;SDS011;943;51.568;6.998;2023-09-12T00:46:37;7.60;;;4.37;;
1885;SDS011;943;51.568;6.998;2023-09-12T00:49:08;10.70;;;5.77;;
1885;SDS011;943;51.568;6.998;2023-09-12T00:51:37;9.70;;;7.93;;
1885;SDS011;943;51.568;6.998;2023-09-12T00:54:05;10.27;;;7.13;;
1885;SDS011;943;51.568;6.998;2023-09-12T00:56:34;13.00;;;7.70;;
1885;SDS011;943;51.568;6.998;2023-09-12T00:59:04;12.40;;;7.60;;
1885;SDS011;943;51.568;6.998;2023-09-12T01:01:33;10.17;;;7.17;;
1885;SDS011;943;51.568;6.998;2023-09-12T01:04:01;14.97;;;9.93;;
1885;SDS011;943;51.568;6.998;2023-09-12T01:06:31;19.40;;;8.17;;
1885;SDS011;943;51.568;6.998;2023-09-12T01:09:01;14.53;;;7.60;;
1885;SDS011;943;51.568;6.998;2023-09-12T01:11:29;13.77;;;8.00;;
1885;SDS011;943;51.568;6.998;2023-09-12T01:13:58;13.33;;;9.13;;
1885;SDS011;943;51.568;6.998;2023-09-12T01:16:26;14.73;;;7.70;;
1885;SDS011;943;51.568;6.998;2023-09-12T01:18:54;18.63;;;12.67;;
1885;SDS011;943;51.568;6.998;2023-09-12T01:21:27;11.73;;;9.43;;
1885;SDS011;943;51.568;6.998;2023-09-12T01:28:13;12.80;;;8.60;;
1885;SDS011;943;51.568;6.998;2023-09-12T01:30:45;17.83;;;10.67;;
1885;SDS011;943;51.568;6.998;2023-09-12T01:33:18;17.93;;;10.47;;
1885;SDS011;943;51.568;6.998;2023-09-12T01:35:47;19.17;;;8.77;;
1885;SDS011;943;51.568;6.998;2023-09-12T01:38:15;19.73;;;9.00;;
1885;SDS011;943;51.568;6.998;2023-09-12T01:40:47;19.07;;;12.27;;
1885;SDS011;943;51.568;6.998;2023-09-12T01:43:23;16.83;;;9.60;;
1885;SDS011;943;51.568;6.998;2023-09-12T01:45:55;20.87;;;9.47;;
1885;SDS011;943;51.568;6.998;2023-09-12T01:48:28;17.40;;;10.77;;
1885;SDS011;943;51.568;6.998;2023-09-12T01:51:03;21.57;;;10.60;;
1885;SDS011;943;51.568;6.998;2023-09-12T01:53:34;16.50;;;10.47;;
1885;SDS011;943;51.568;6.998;2023-09-12T01:56:04;20.67;;;9.97;;
1885;SDS011;943;51.568;6.998;2023-09-12T01:58:32;13.97;;;8.07;;
1885;SDS011;943;51.568;6.998;2023-09-12T02:01:02;17.50;;;9.70;;
1885;SDS011;943;51.568;6.998;2023-09-12T02:03:30;21.93;;;11.57;;
1885;SDS011;943;51.568;6.998;2023-09-12T02:05:58;20.27;;;12.20;;
1885;SDS011;943;51.568;6.998;2023-09-12T02:08:26;11.90;;;9.70;;
1885;SDS011;943;51.568;6.998;2023-09-12T02:10:54;16.83;;;11.67;;
1885;SDS011;943;51.568;6.998;2023-09-12T02:13:22;20.80;;;11.80;;
1885;SDS011;943;51.568;6.998;2023-09-12T02:15:49;23.20;;;10.80;;
1885;SDS011;943;51.568;6.998;2023-09-12T02:18:25;19.17;;;10.50;;
1885;SDS011;943;51.568;6.998;2023-09-12T02:20:53;16.43;;;10.13;;
1885;SDS011;943;51.568;6.998;2023-09-12T02:23:21;19.70;;;9.73;;
1885;SDS011;943;51.568;6.998;2023-09-12T02:25:49;18.90;;;11.77;;
1885;SDS011;943;51.568;6.998;2023-09-12T02:28:17;24.60;;;10.37;;
1885;SDS011;943;51.568;6.998;2023-09-12T02:30:46;15.40;;;9.70;;
1885;SDS011;943;51.568;6.998;2023-09-12T02:33:14;24.43;;;12.00;;
1885;SDS011;943;51.568;6.998;2023-09-12T02:35:42;16.27;;;8.33;;
1885;SDS011;943;51.568;6.998;2023-09-12T02:38:09;14.33;;;11.83;;
1885;SDS011;943;51.568;6.998;2023-09-12T02:40:37;24.10;;;11.47;;
1885;SDS011;943;51.568;6.998;2023-09-12T02:43:05;14.63;;;9.60;;
1885;SDS011;943;51.568;6.998;2023-09-12T02:45:33;16.00;;;9.87;;
1885;SDS011;943;51.568;6.998;2023-09-12T02:48:01;19.37;;;9.87;;
1885;SDS011;943;51.568;6.998;2023-09-12T02:50:29;19.83;;;13.40;;
1885;SDS011;943;51.568;6.998;2023-09-12T02:52:57;19.43;;;9.53;;
1885;SDS011;943;51.568;6.998;2023-09-12T02:55:24;17.00;;;11.20;;
1885;SDS011;943;51.568;6.998;2023-09-12T02:57:53;20.77;;;12.67;;
1885;SDS011;943;51.568;6.998;2023-09-12T03:00:21;20.20;;;8.83;;
1885;SDS011;943;51.568;6.998;2023-09-12T03:02:49;18.90;;;12.53;;
1885;SDS011;943;51.568;6.998;2023-09-12T03:05:17;14.90;;;9.17;;
1885;SDS011;943;51.568;6.998;2023-09-12T03:07:45;29.17;;;13.33;;
1885;SDS011;943;51.568;6.998;2023-09-12T03:10:13;18.90;;;12.60;;
1885;SDS011;943;51.568;6.998;2023-09-12T03:12:41;19.20;;;10.80;;
1885;SDS011;943;51.568;6.998;2023-09-12T03:15:09;13.90;;;10.27;;
1885;SDS011;943;51.568;6.998;2023-09-12T03:17:38;21.00;;;12.47;;
1885;SDS011;943;51.568;6.998;2023-09-12T03:20:06;11.47;;;8.43;;
1885;SDS011;943;51.568;6.998;2023-09-12T03:22:34;16.40;;;9.23;;
1885;SDS011;943;51.568;6.998;2023-09-12T03:25:06;21.00;;;10.00;;
1885;SDS011;943;51.568;6.998;2023-09-12T03:27:34;17.03;;;10.00;;
1885;SDS011;943;51.568;6.998;2023-09-12T03:30:03;20.83;;;10.80;;
1885;SDS011;943;51.568;6.998;2023-09-12T03:32:33;16.80;;;10.03;;
1885;SDS011;943;51.568;6.998;2023-09-12T03:35:01;21.93;;;11.43;;
1885;SDS011;943;51.568;6.998;2023-09-12T03:37:29;22.53;;;11.60;;
1885;SDS011;943;51.568;6.998;2023-09-12T03:39:56;13.20;;;8.70;;
1885;SDS011;943;51.568;6.998;2023-09-12T03:42:24;14.67;;;9.97;;
1885;SDS011;943;51.568;6.998;2023-09-12T03:45:07;15.17;;;9.27;;
1885;SDS011;943;51.568;6.998;2023-09-12T03:47:36;16.00;;;9.47;;
1885;SDS011;943;51.568;6.998;2023-09-12T03:50:05;9.90;;;7.30;;
1885;SDS011;943;51.568;6.998;2023-09-12T03:52:34;14.50;;;6.90;;
1885;SDS011;943;51.568;6.998;2023-09-12T03:55:01;31.67;;;11.43;;
1885;SDS011;943;51.568;6.998;2023-09-12T03:57:29;13.87;;;8.67;;
1885;SDS011;943;51.568;6.998;2023-09-12T03:59:58;13.40;;;7.83;;
1885;SDS011;943;51.568;6.998;2023-09-12T04:02:26;11.63;;;8.40;;
1885;SDS011;943;51.568;6.998;2023-09-12T04:04:55;13.97;;;7.83;;
1885;SDS011;943;51.568;6.998;2023-09-12T04:07:26;14.30;;;7.50;;
1885;SDS011;943;51.568;6.998;2023-09-12T04:09:54;15.20;;;9.40;;
1885;SDS011;943;51.568;6.998;2023-09-12T04:12:21;16.07;;;8.87;;
1885;SDS011;943;51.568;6.998;2023-09-12T04:14:50;14.40;;;8.30;;
1885;SDS011;943;51.568;6.998;2023-09-12T04:17:19;11.90;;;8.93;;
1885;SDS011;943;51.568;6.998;2023-09-12T04:19:47;15.40;;;8.00;;
1885;SDS011;943;51.568;6.998;2023-09-12T04:22:15;14.70;;;6.97;;
1885;SDS011;943;51.568;6.998;2023-09-12T04:24:42;12.40;;;8.83;;
1885;SDS011;943;51.568;6.998;2023-09-12T04:27:10;13.60;;;8.53;;
1885;SDS011;943;51.568;6.998;2023-09-12T04:29:39;12.03;;;8.47;;
1885;SDS011;943;51.568;6.998;2023-09-12T04:32:07;16.97;;;8.23;;
1885;SDS011;943;51.568;6.998;2023-09-12T04:34:36;11.07;;;7.40;;
1885;SDS011;943;51.568;6.998;2023-09-12T04:37:04;10.60;;;7.40;;
1885;SDS011;943;51.568;6.998;2023-09-12T04:39:33;13.20;;;8.80;;
1885;SDS011;943;51.568;6.998;2023-09-12T04:42:01;13.47;;;8.30;;
1885;SDS011;943;51.568;6.998;2023-09-12T04:44:35;19.53;;;9.00;;
1885;SDS011;943;51.568;6.998;2023-09-12T04:47:08;15.67;;;8.60;;
1885;SDS011;943;51.568;6.998;2023-09-12T04:49:36;15.77;;;8.00;;
1885;SDS011;943;51.568;6.998;2023-09-12T04:52:04;9.63;;;6.50;;
1885;SDS011;943;51.568;6.998;2023-09-12T04:54:34;17.67;;;8.20;;
1885;SDS011;943;51.568;6.998;2023-09-12T04:57:01;15.80;;;8.07;;
1885;SDS011;943;51.568;6.998;2023-09-12T04:59:30;16.73;;;9.30;;
1885;SDS011;943;51.568;6.998;2023-09-12T05:01:58;23.33;;;8.63;;
1885;SDS011;943;51.568;6.998;2023-09-12T05:04:26;12.13;;;8.13;;
1885;SDS011;943;51.568;6.998;2023-09-12T05:06:54;13.37;;;7.87;;
1885;SDS011;943;51.568;6.998;2023-09-12T05:09:22;11.13;;;7.00;;
1885;SDS011;943;51.568;6.998;2023-09-12T05:11:50;16.03;;;9.97;;
1885;SDS011;943;51.568;6.998;2023-09-12T05:14:18;19.93;;;9.80;;
1885;SDS011;943;51.568;6.998;2023-09-12T05:16:46;8.80;;;6.13;;
1885;SDS011;943;51.568;6.998;2023-09-12T05:19:14;12.10;;;8.80;;
1885;SDS011;943;51.568;6.998;2023-09-12T05:21:42;11.07;;;6.97;;
1885;SDS011;943;51.568;6.998;2023-09-12T05:24:10;10.73;;;7.30;;
1885;SDS011;943;51.568;6.998;2023-09-12T05:26:38;11.90;;;8.10;;
1885;SDS011;943;51.568;6.998;2023-09-12T05:29:09;13.53;;;9.50;;
1885;SDS011;943;51.568;6.998;2023-09-12T05:31:37;14.33;;;8.30;;
1885;SDS011;943;51.568;6.998;2023-09-12T05:34:05;21.63;;;7.47;;
1885;SDS011;943;51.568;6.998;2023-09-12T05:36:33;17.03;;;9.00;;
1885;SDS011;943;51.568;6.998;2023-09-12T05:39:01;19.23;;;7.50;;
1885;SDS011;943;51.568;6.998;2023-09-12T05:41:30;10.30;;;7.37;;
1885;SDS011;943;51.568;6.998;2023-09-12T05:43:58;11.63;;;6.77;;
1885;SDS011;943;51.568;6.998;2023-09-12T05:46:26;10.20;;;7.30;;
1885;SDS011;943;51.568;6.998;2023-09-12T05:48:54;10.40;;;7.00;;
1885;SDS011;943;51.568;6.998;2023-09-12T05:51:22;12.93;;;9.07;;
1885;SDS011;943;51.568;6.998;2023-09-12T05:53:50;13.70;;;8.63;;
1885;SDS011;943;51.568;6.998;2023-09-12T05:56:18;18.40;;;9.90;;
1885;SDS011;943;51.568;6.998;2023-09-12T05:58:47;13.77;;;8.60;;
1885;SDS011;943;51.568;6.998;2023-09-12T06:01:17;12.77;;;8.40;;
1885;SDS011;943;51.568;6.998;2023-09-12T06:03:45;15.83;;;8.53;;
1885;SDS011;943;51.568;6.998;2023-09-12T06:06:14;17.23;;;10.00;;
1885;SDS011;943;51.568;6.998;2023-09-12T06:08:42;19.00;;;10.37;;
1885;SDS011;943;51.568;6.998;2023-09-12T06:11:10;12.67;;;8.67;;
1885;SDS011;943;51.568;6.998;2023-09-12T06:13:38;11.73;;;7.43;;
1885;SDS011;943;51.568;6.998;2023-09-12T06:16:05;12.80;;;8.27;;
1885;SDS011;943;51.568;6.998;2023-09-12T06:18:34;14.30;;;9.17;;
1885;SDS011;943;51.568;6.998;2023-09-12T06:21:02;14.63;;;10.07;;
1885;SDS011;943;51.568;6.998;2023-09-12T06:23:31;13.87;;;9.67;;
1885;SDS011;943;51.568;6.998;2023-09-12T06:25:58;17.37;;;10.10;;
1885;SDS011;943;51.568;6.998;2023-09-12T06:28:27;12.07;;;7.67;;
1885;SDS011;943;51.568;6.998;2023-09-12T06:30:57;15.83;;;8.80;;
1885;SDS011;943;51.568;6.998;2023-09-12T06:33:26;20.80;;;10.57;;
1885;SDS011;943;51.568;6.998;2023-09-12T06:35:55;25.63;;;11.80;;
1885;SDS011;943;51.568;6.998;2023-09-12T06:38:22;17.40;;;9.73;;
1885;SDS011;943;51.568;6.998;2023-09-12T06:40:50;25.00;;;10.50;;
1885;SDS011;943;51.568;6.998;2023-09-12T06:43:18;15.10;;;9.47;;
1885;SDS011;943;51.568;6.998;2023-09-12T06:45:47;17.17;;;8.70;;
1885;SDS011;943;51.568;6.998;2023-09-12T06:48:14;15.70;;;9.23;;
1885;SDS011;943;51.568;6.998;2023-09-12T06:50:43;11.17;;;6.93;;
1885;SDS011;943;51.568;6.998;2023-09-12T06:53:17;11.93;;;8.00;;
1885;SDS011;943;51.568;6.998;2023-09-12T06:55:44;11.40;;;7.63;;
1885;SDS011;943;51.568;6.998;2023-09-12T06:58:13;16.30;;;9.30;;
1885;SDS011;943;51.568;6.998;2023-09-12T07:00:41;12.70;;;8.20;;
1885;SDS011;943;51.568;6.998;2023-09-12T07:03:09;11.10;;;7.87;;
1885;SDS011;943;51.568;6.998;2023-09-12T07:05:41;19.10;;;8.77;;
1885;SDS011;943;51.568;6.998;2023-09-12T07:08:09;14.97;;;8.03;;
1885;SDS011;943;51.568;6.998;2023-09-12T07:10:43;16.73;;;8.00;;
1885;SDS011;943;51.568;6.998;2023-09-12T07:13:12;12.20;;;9.70;;
1885;SDS011;943;51.568;6.998;2023-09-12T07:15:40;13.07;;;8.77;;
1885;SDS011;943;51.568;6.998;2023-09-12T07:18:08;15.33;;;10.97;;
1885;SDS011;943;51.568;6.998;2023-09-12T07:20:36;13.77;;;9.03;;
1885;SDS011;943;51.568;6.998;2023-09-12T07:23:04;12.03;;;7.83;;
1885;SDS011;943;51.568;6.998;2023-09-12T07:25:35;15.40;;;11.17;;
1885;SDS011;943;51.568;6.998;2023-09-12T07:28:08;13.27;;;10.40;;
1885;SDS011;943;51.568;6.998;2023-09-12T07:30:36;13.43;;;7.13;;
1885;SDS011;943;51.568;6.998;2023-09-12T07:33:04;17.57;;;10.97;;
1885;SDS011;943;51.568;6.998;2023-09-12T07:35:34;18.27;;;12.37;;
1885;SDS011;943;51.568;6.998;2023-09-12T07:38:02;14.57;;;9.53;;
1885;SDS011;943;51.568;6.998;2023-09-12T07:40:30;15.80;;;11.40;;
1885;SDS011;943;51.568;6.998;2023-09-12T07:42:58;14.40;;;8.40;;
1885;SDS011;943;51.568;6.998;2023-09-12T07:45:25;13.17;;;9.00;;
1885;SDS011;943;51.568;6.998;2023-09-12T07:47:54;15.83;;;9.97;;
1885;SDS011;943;51.568;6.998;2023-09-12T07:50:23;14.67;;;9.30;;
1885;SDS011;943;51.568;6.998;2023-09-12T07:52:51;18.53;;;7.13;;
1885;SDS011;943;51.568;6.998;2023-09-12T07:55:22;13.70;;;9.43;;
1885;SDS011;943;51.568;6.998;2023-09-12T07:57:49;15.57;;;12.20;;
1885;SDS011;943;51.568;6.998;2023-09-12T08:00:18;14.13;;;9.40;;
1885;SDS011;943;51.568;6.998;2023-09-12T08:02:45;17.60;;;12.17;;
1885;SDS011;943;51.568;6.998;2023-09-12T08:05:14;21.37;;;10.30;;
1885;SDS011;943;51.568;6.998;2023-09-12T08:07:42;17.27;;;7.90;;
1885;SDS011;943;51.568;6.998;2023-09-12T08:10:10;20.07;;;9.10;;
1885;SDS011;943;51.568;6.998;2023-09-12T08:12:38;14.13;;;7.67;;
1885;SDS011;943;51.568;6.998;2023-09-12T08:15:07;13.40;;;8.67;;
1885;SDS011;943;51.568;6.998;2023-09-12T08:17:36;12.43;;;6.70;;
1885;SDS011;943;51.568;6.998;2023-09-12T08:20:07;13.17;;;6.93;;
1885;SDS011;943;51.568;6.998;2023-09-12T08:22:37;17.23;;;9.10;;
1885;SDS011;943;51.568;6.998;2023-09-12T08:25:05;12.93;;;7.87;;
1885;SDS011;943;51.568;6.998;2023-09-12T08:27:34;14.63;;;9.03;;
1885;SDS011;943;51.568;6.998;2023-09-12T08:30:01;22.37;;;10.53;;
1885;SDS011;943;51.568;6.998;2023-09-12T08:32:30;17.07;;;12.00;;
1885;SDS011;943;51.568;6.998;2023-09-12T08:34:58;9.13;;;5.67;;
1885;SDS011;943;51.568;6.998;2023-09-12T08:37:27;9.20;;;6.50;;
1885;SDS011;943;51.568;6.998;2023-09-12T08:39:54;11.67;;;9.67;;
1885;SDS011;943;51.568;6.998;2023-09-12T08:42:26;13.00;;;6.50;;
1885;SDS011;943;51.568;6.998;2023-09-12T08:44:57;13.40;;;8.13;;
1885;SDS011;943;51.568;6.998;2023-09-12T08:47:24;12.77;;;7.27;;
1885;SDS011;943;51.568;6.998;2023-09-12T08:49:54;14.70;;;8.87;;
1885;SDS011;943;51.568;6.998;2023-09-12T08:52:22;9.93;;;7.90;;
1885;SDS011;943;51.568;6.998;2023-09-12T08:54:50;13.90;;;6.57;;
1885;SDS011;943;51.568;6.998;2023-09-12T08:57:19;14.30;;;6.93;;
1885;SDS011;943;51.568;6.998;2023-09-12T08:59:48;8.30;;;6.30;;
1885;SDS011;943;51.568;6.998;2023-09-12T09:02:18;10.40;;;8.63;;
1885;SDS011;943;51.568;6.998;2023-09-12T09:04:48;12.33;;;8.07;;
1885;SDS011;943;51.568;6.998;2023-09-12T09:07:18;8.73;;;6.37;;
1885;SDS011;943;51.568;6.998;2023-09-12T09:09:48;10.67;;;6.57;;
1885;SDS011;943;51.568;6.998;2023-09-12T09:12:20;12.30;;;5.73;;
1885;SDS011;943;51.568;6.998;2023-09-12T09:14:48;6.10;;;4.50;;
1885;SDS011;943;51.568;6.998;2023-09-12T09:17:16;7.73;;;5.60;;
1885;SDS011;943;51.568;6.998;2023-09-12T09:20:01;6.70;;;4.70;;
1885;SDS011;943;51.568;6.998;2023-09-12T09:22:28;5.00;;;3.47;;
1885;SDS011;943;51.568;6.998;2023-09-12T09:25:09;4.70;;;3.33;;
1885;SDS011;943;51.568;6.998;2023-09-12T09:27:39;4.13;;;3.03;;
1885;SDS011;943;51.568;6.998;2023-09-12T09:30:07;7.73;;;3.20;;
1885;SDS011;943;51.568;6.998;2023-09-12T09:32:37;5.30;;;4.30;;
1885;SDS011;943;51.568;6.998;2023-09-12T09:35:04;5.70;;;3.73;;
1885;SDS011;943;51.568;6.998;2023-09-12T09:37:36;4.40;;;3.80;;
1885;SDS011;943;51.568;6.998;2023-09-12T09:40:06;6.67;;;4.47;;
1885;SDS011;943;51.568;6.998;2023-09-12T09:42:37;5.60;;;3.80;;
1885;SDS011;943;51.568;6.998;2023-09-12T09:45:05;5.50;;;3.03;;
1885;SDS011;943;51.568;6.998;2023-09-12T09:47:34;4.60;;;2.80;;
1885;SDS011;943;51.568;6.998;2023-09-12T09:50:02;4.60;;;3.07;;
1885;SDS011;943;51.568;6.998;2023-09-12T09:52:30;4.67;;;2.97;;
1885;SDS011;943;51.568;6.998;2023-09-12T09:54:58;5.60;;;4.17;;
1885;SDS011;943;51.568;6.998;2023-09-12T09:57:27;6.27;;;3.70;;
1885;SDS011;943;51.568;6.998;2023-09-12T09:59:55;4.10;;;2.50;;
1885;SDS011;943;51.568;6.998;2023-09-12T10:02:23;5.33;;;2.93;;
1885;SDS011;943;51.568;6.998;2023-09-12T10:04:56;5.10;;;3.00;;
1885;SDS011;943;51.568;6.998;2023-09-12T10:07:27;5.13;;;4.20;;
1885;SDS011;943;51.568;6.998;2023-09-12T10:10:03;5.80;;;5.00;;
1885;SDS011;943;51.568;6.998;2023-09-12T10:12:35;8.03;;;4.87;;
1885;SDS011;943;51.568;6.998;2023-09-12T10:15:17;5.40;;;4.40;;
1885;SDS011;943;51.568;6.998;2023-09-12T10:17:51;11.13;;;4.10;;
1885;SDS011;943;51.568;6.998;2023-09-12T10:20:50;8.50;;;5.90;;
1885;SDS011;943;51.568;6.998;2023-09-12T10:23:37;6.90;;;5.47;;
1885;SDS011;943;51.568;6.998;2023-09-12T10:26:12;7.00;;;5.27;;
1885;SDS011;943;51.568;6.998;2023-09-12T10:28:42;9.30;;;5.70;;
1885;SDS011;943;51.568;6.998;2023-09-12T10:31:12;7.10;;;4.43;;
1885;SDS011;943;51.568;6.998;2023-09-12T10:33:43;11.40;;;5.10;;
1885;SDS011;943;51.568;6.998;2023-09-12T10:36:13;5.60;;;4.40;;
1885;SDS011;943;51.568;6.998;2023-09-12T10:38:47;6.33;;;4.80;;
1885;SDS011;943;51.568;6.998;2023-09-12T10:41:17;5.47;;;4.73;;
1885;SDS011;943;51.568;6.998;2023-09-12T10:43:50;6.50;;;4.33;;
1885;SDS011;943;51.568;6.998;2023-09-12T10:46:25;6.07;;;4.07;;
1885;SDS011;943;51.568;6.998;2023-09-12T10:48:54;5.43;;;3.77;;
1885;SDS011;943;51.568;6.998;2023-09-12T10:51:22;7.07;;;3.87;;
1885;SDS011;943;51.568;6.998;2023-09-12T10:53:50;10.70;;;3.70;;
1885;SDS011;943;51.568;6.998;2023-09-12T10:56:20;5.00;;;3.33;;
1885;SDS011;943;51.568;6.998;2023-09-12T11:01:31;5.63;;;4.30;;
1885;SDS011;943;51.568;6.998;2023-09-12T11:07:00;5.10;;;3.57;;
1885;SDS011;943;51.568;6.998;2023-09-12T11:09:28;5.27;;;3.97;;
1885;SDS011;943;51.568;6.998;2023-09-12T11:11:58;5.07;;;2.40;;
1885;SDS011;943;51.568;6.998;2023-09-12T11:14:31;7.03;;;3.50;;
1885;SDS011;943;51.568;6.998;2023-09-12T11:19:42;5.97;;;3.87;;
1885;SDS011;943;51.568;6.998;2023-09-12T11:22:21;5.60;;;4.13;;
1885;SDS011;943;51.568;6.998;2023-09-12T11:24:54;6.07;;;5.07;;
1885;SDS011;943;51.568;6.998;2023-09-12T11:27:24;10.03;;;3.93;;
1885;SDS011;943;51.568;6.998;2023-09-12T11:30:10;9.20;;;4.20;;
1885;SDS011;943;51.568;6.998;2023-09-12T11:32:39;8.23;;;4.70;;
1885;SDS011;943;51.568;6.998;2023-09-12T11:35:14;8.47;;;5.53;;
1885;SDS011;943;51.568;6.998;2023-09-12T11:37:49;6.30;;;4.50;;
1885;SDS011;943;51.568;6.998;2023-09-12T11:43:00;10.63;;;8.30;;
1885;SDS011;943;51.568;6.998;2023-09-12T11:45:29;9.10;;;7.03;;
1885;SDS011;943;51.568;6.998;2023-09-12T11:47:59;6.77;;;5.00;;
1885;SDS011;943;51.568;6.998;2023-09-12T11:50:32;9.80;;;6.20;;
1885;SDS011;943;51.568;6.998;2023-09-12T11:53:06;9.70;;;6.10;;
1885;SDS011;943;51.568;6.998;2023-09-12T11:58:20;7.33;;;5.30;;
1885;SDS011;943;51.568;6.998;2023-09-12T12:00:49;9.80;;;5.97;;
1885;SDS011;943;51.568;6.998;2023-09-12T12:03:22;8.77;;;6.10;;
1885;SDS011;943;51.568;6.998;2023-09-12T12:05:55;9.17;;;7.00;;
1885;SDS011;943;51.568;6.998;2023-09-12T12:08:24;8.67;;;5.57;;
1885;SDS011;943;51.568;6.998;2023-09-12T12:10:58;16.17;;;6.20;;
1885;SDS011;943;51.568;6.998;2023-09-12T12:13:27;7.80;;;5.63;;
1885;SDS011;943;51.568;6.998;2023-09-12T12:15:56;7.17;;;4.77;;
1885;SDS011;943;51.568;6.998;2023-09-12T12:18:24;8.00;;;5.80;;
1885;SDS011;943;51.568;6.998;2023-09-12T12:20:54;7.73;;;4.10;;
1885;SDS011;943;51.568;6.998;2023-09-12T12:23:23;8.80;;;6.07;;
1885;SDS011;943;51.568;6.998;2023-09-12T12:25:50;7.70;;;6.03;;
1885;SDS011;943;51.568;6.998;2023-09-12T12:28:18;9.07;;;8.13;;
1885;SDS011;943;51.568;6.998;2023-09-12T12:30:49;7.53;;;5.40;;
1885;SDS011;943;51.568;6.998;2023-09-12T12:33:21;7.77;;;6.47;;
1885;SDS011;943;51.568;6.998;2023-09-12T12:36:10;6.97;;;5.40;;
1885;SDS011;943;51.568;6.998;2023-09-12T12:38:38;7.37;;;5.97;;
1885;SDS011;943;51.568;6.998;2023-09-12T12:41:24;6.63;;;5.80;;
1885;SDS011;943;51.568;6.998;2023-09-12T12:44:14;11.17;;;6.10;;
1885;SDS011;943;51.568;6.998;2023-09-12T12:46:49;5.30;;;4.63;;
1885;SDS011;943;51.568;6.998;2023-09-12T12:49:21;6.17;;;5.30;;
1885;SDS011;943;51.568;6.998;2023-09-12T12:51:49;7.17;;;4.83;;
1885;SDS011;943;51.568;6.998;2023-09-12T12:54:21;8.57;;;5.07;;
1885;SDS011;943;51.568;6.998;2023-09-12T12:56:50;7.33;;;5.50;;
1885;SDS011;943;51.568;6.998;2023-09-12T12:59:19;11.47;;;5.70;;
1885;SDS011;943;51.568;6.998;2023-09-12T13:01:47;9.00;;;5.90;;
1885;SDS011;943;51.568;6.998;2023-09-12T13:04:18;5.90;;;4.60;;
1885;SDS011;943;51.568;6.998;2023-09-12T13:06:46;8.40;;;6.33;;
1885;SDS011;943;51.568;6.998;2023-09-12T13:09:14;7.13;;;5.50;;
1885;SDS011;943;51.568;6.998;2023-09-12T13:11:43;7.60;;;5.10;;
1885;SDS011;943;51.568;6.998;2023-09-12T13:14:11;8.37;;;6.53;;
1885;SDS011;943;51.568;6.998;2023-09-12T13:16:39;7.30;;;5.20;;
1885;SDS011;943;51.568;6.998;2023-09-12T13:19:08;8.80;;;7.50;;
1885;SDS011;943;51.568;6.998;2023-09-12T13:21:40;8.13;;;4.83;;
1885;SDS011;943;51.568;6.998;2023-09-12T13:24:09;6.57;;;4.00;;
1885;SDS011;943;51.568;6.998;2023-09-12T13:26:37;5.20;;;3.67;;
1885;SDS011;943;51.568;6.998;2023-09-12T13:29:07;4.90;;;3.43;;
1885;SDS011;943;51.568;6.998;2023-09-12T13:31:35;8.27;;;4.90;;
1885;SDS011;943;51.568;6.998;2023-09-12T13:34:03;15.97;;;6.20;;
1885;SDS011;943;51.568;6.998;2023-09-12T13:36:31;7.30;;;4.50;;
1885;SDS011;943;51.568;6.998;2023-09-12T13:38:59;8.87;;;5.97;;
1885;SDS011;943;51.568;6.998;2023-09-12T13:41:27;5.73;;;4.47;;
1885;SDS011;943;51.568;6.998;2023-09-12T13:43:55;8.10;;;5.63;;
1885;SDS011;943;51.568;6.998;2023-09-12T13:46:23;6.30;;;4.40;;
1885;SDS011;943;51.568;6.998;2023-09-12T13:48:51;5.77;;;4.30;;
1885;SDS011;943;51.568;6.998;2023-09-12T13:51:19;5.77;;;3.20;;
1885;SDS011;943;51.568;6.998;2023-09-12T13:53:47;4.40;;;2.90;;
1885;SDS011;943;51.568;6.998;2023-09-12T13:56:14;5.27;;;4.13;;
1885;SDS011;943;51.568;6.998;2023-09-12T13:58:42;8.30;;;5.53;;
1885;SDS011;943;51.568;6.998;2023-09-12T14:01:17;5.97;;;4.67;;
1885;SDS011;943;51.568;6.998;2023-09-12T14:04:00;5.23;;;3.60;;
1885;SDS011;943;51.568;6.998;2023-09-12T14:06:32;5.80;;;3.80;;
1885;SDS011;943;51.568;6.998;2023-09-12T14:09:02;6.40;;;4.77;;
1885;SDS011;943;51.568;6.998;2023-09-12T14:11:31;6.23;;;5.30;;
1885;SDS011;943;51.568;6.998;2023-09-12T14:14:05;7.40;;;5.10;;
1885;SDS011;943;51.568;6.998;2023-09-12T14:16:43;9.30;;;5.73;;
1885;SDS011;943;51.568;6.998;2023-09-12T14:19:14;4.63;;;3.60;;
1885;SDS011;943;51.568;6.998;2023-09-12T14:21:43;7.00;;;4.07;;
1885;SDS011;943;51.568;6.998;2023-09-12T14:24:12;11.20;;;6.97;;
1885;SDS011;943;51.568;6.998;2023-09-12T14:26:40;6.63;;;4.37;;
1885;SDS011;943;51.568;6.998;2023-09-12T14:29:08;4.37;;;3.23;;
1885;SDS011;943;51.568;6.998;2023-09-12T14:31:37;6.90;;;4.17;;
1885;SDS011;943;51.568;6.998;2023-09-12T14:34:05;7.00;;;4.53;;
1885;SDS011;943;51.568;6.998;2023-09-12T14:36:35;6.20;;;4.43;;
1885;SDS011;943;51.568;6.998;2023-09-12T14:39:02;7.67;;;6.40;;
1885;SDS011;943;51.568;6.998;2023-09-12T14:41:30;7.20;;;4.37;;
1885;SDS011;943;51.568;6.998;2023-09-12T14:43:58;7.23;;;4.97;;
1885;SDS011;943;51.568;6.998;2023-09-12T14:46:26;7.93;;;3.90;;
1885;SDS011;943;51.568;6.998;2023-09-12T14:48:54;8.03;;;2.93;;
1885;SDS011;943;51.568;6.998;2023-09-12T14:51:27;7.40;;;4.40;;
1885;SDS011;943;51.568;6.998;2023-09-12T14:53:59;11.70;;;4.00;;
1885;SDS011;943;51.568;6.998;2023-09-12T14:56:32;5.37;;;3.50;;
1885;SDS011;943;51.568;6.998;2023-09-12T14:59:03;3.90;;;3.30;;
1885;SDS011;943;51.568;6.998;2023-09-12T15:01:33;5.80;;;3.10;;
1885;SDS011;943;51.568;6.998;2023-09-12T15:04:01;5.93;;;3.47;;
1885;SDS011;943;51.568;6.998;2023-09-12T15:06:29;5.27;;;2.70;;
1885;SDS011;943;51.568;6.998;2023-09-12T15:09:03;7.10;;;2.30;;
1885;SDS011;943;51.568;6.998;2023-09-12T15:11:32;6.90;;;3.93;;
1885;SDS011;943;51.568;6.998;2023-09-12T15:14:00;4.00;;;2.87;;
1885;SDS011;943;51.568;6.998;2023-09-12T15:16:28;4.70;;;3.00;;
1885;SDS011;943;51.568;6.998;2023-09-12T15:19:01;4.60;;;2.57;;
1885;SDS011;943;51.568;6.998;2023-09-12T15:21:30;4.53;;;2.97;;
1885;SDS011;943;51.568;6.998;2023-09-12T15:23:58;3.60;;;2.33;;
1885;SDS011;943;51.568;6.998;2023-09-12T15:26:25;5.13;;;3.80;;
1885;SDS011;943;51.568;6.998;2023-09-12T15:28:53;6.53;;;3.47;;
1885;SDS011;943;51.568;6.998;2023-09-12T15:31:21;5.17;;;2.33;;
1885;SDS011;943;51.568;6.998;2023-09-12T15:33:49;4.97;;;2.37;;
1885;SDS011;943;51.568;6.998;2023-09-12T15:36:17;6.80;;;4.10;;
1885;SDS011;943;51.568;6.998;2023-09-12T15:38:44;7.77;;;2.63;;
1885;SDS011;943;51.568;6.998;2023-09-12T15:41:13;3.90;;;2.37;;
1885;SDS011;943;51.568;6.998;2023-09-12T15:43:41;4.67;;;2.87;;
1885;SDS011;943;51.568;6.998;2023-09-12T15:46:09;6.10;;;2.57;;
1885;SDS011;943;51.568;6.998;2023-09-12T15:48:51;4.40;;;2.80;;
1885;SDS011;943;51.568;6.998;2023-09-12T15:51:19;4.37;;;3.00;;
1885;SDS011;943;51.568;6.998;2023-09-12T15:53:48;2.73;;;1.53;;